createdAt,value
2022-08-03T00:02:50.765Z,101393.03
2022-08-03T00:06:04.020Z,101396.75
2022-08-03T00:09:09.518Z,101388.66
2022-08-03T00:12:13.877Z,101387.19
2022-08-03T00:15:18.635Z,101380.16
2022-08-03T00:18:23.147Z,101379.34
2022-08-03T00:21:28.137Z,101377.75
2022-08-03T00:24:32.434Z,101380.84
2022-08-03T00:27:36.790Z,101378.56
2022-08-03T00:30:41.402Z,101368.53
2022-08-03T00:33:58.025Z,101369.03
2022-08-03T00:37:04.266Z,101372.41
2022-08-03T00:40:13.608Z,101367.09
2022-08-03T00:43:18.248Z,101367.56
2022-08-03T00:46:22.552Z,101370.00
2022-08-03T00:49:27.873Z,101372.16
2022-08-03T00:52:32.507Z,101375.16
2022-08-03T00:55:37.051Z,101377.91
2022-08-03T00:58:41.336Z,101371.66
2022-08-03T01:01:45.365Z,101378.44
2022-08-03T01:04:49.747Z,101369.50
2022-08-03T01:08:00.502Z,101380.63
2022-08-03T01:11:36.886Z,101367.81
2022-08-03T01:15:33.022Z,101360.09
2022-08-03T01:18:45.001Z,101358.88
2022-08-03T01:22:27.832Z,101370.25
2022-08-03T01:25:54.193Z,101365.47
2022-08-03T01:29:35.900Z,101357.63
2022-08-03T01:33:02.785Z,101353.16
2022-08-03T01:36:12.738Z,101353.53
2022-08-03T01:39:17.406Z,101330.94
2022-08-03T01:42:22.392Z,101327.56
2022-08-03T01:45:27.695Z,101323.47
2022-08-03T01:48:32.293Z,101322.25
2022-08-03T01:52:02.847Z,101330.94
2022-08-03T01:55:04.194Z,101343.59
2022-08-03T01:58:08.738Z,101342.28
2022-08-03T02:01:13.690Z,101349.78
2022-08-03T02:04:19.361Z,101349.16
2022-08-03T02:07:24.872Z,101349.16
2022-08-03T02:10:35.216Z,101353.63
2022-08-03T02:13:40.468Z,101358.47
2022-08-03T02:16:45.957Z,101365.19
2022-08-03T02:19:51.219Z,101356.38
2022-08-03T02:22:55.833Z,101366.91
2022-08-03T02:26:04.795Z,101363.75
2022-08-03T02:29:17.667Z,101358.44
2022-08-03T02:32:30.741Z,101359.03
2022-08-03T02:35:35.889Z,101354.56
2022-08-03T02:38:42.807Z,101346.84
2022-08-03T02:41:52.495Z,101345.63
2022-08-03T02:44:58.696Z,101334.25
2022-08-03T02:48:05.962Z,101331.25
2022-08-03T02:51:10.289Z,101318.56
2022-08-03T02:54:17.018Z,101315.44
2022-08-03T02:57:22.585Z,101302.97
2022-08-03T03:00:28.070Z,101310.22
2022-08-03T03:03:39.981Z,101309.34
2022-08-03T03:06:50.641Z,101316.16
2022-08-03T03:09:56.423Z,101302.84
2022-08-03T03:13:01.285Z,101304.56
2022-08-03T03:16:06.346Z,101303.78
2022-08-03T03:19:11.483Z,101303.06
2022-08-03T03:22:17.177Z,101300.41
2022-08-03T03:25:21.810Z,101310.34
2022-08-03T03:28:26.486Z,101316.63
2022-08-03T03:31:30.488Z,101314.19
2022-08-03T03:34:35.136Z,101313.47
2022-08-03T03:37:39.969Z,101322.41
2022-08-03T03:40:44.567Z,101322.63
2022-08-03T03:43:50.557Z,101320.97
2022-08-03T03:46:58.867Z,101311.16
2022-08-03T03:50:05.320Z,101313.94
2022-08-03T03:53:11.279Z,101309.94
2022-08-03T03:56:15.609Z,101314.16
2022-08-03T03:59:19.829Z,101315.88
2022-08-03T04:02:24.335Z,101309.44
2022-08-03T04:05:47.197Z,101301.63
2022-08-03T04:09:10.491Z,101304.88
2022-08-03T04:12:16.380Z,101297.97
2022-08-03T04:15:23.118Z,101305.22
2022-08-03T04:18:30.566Z,101302.44
2022-08-03T04:21:37.929Z,101303.28
2022-08-03T04:24:46.682Z,101308.59
2022-08-03T04:28:07.743Z,101312.09
2022-08-03T04:31:20.634Z,101304.28
2022-08-03T04:34:24.742Z,101305.00
2022-08-03T04:37:49.207Z,101301.13
2022-08-03T04:40:54.225Z,101301.13
2022-08-03T04:44:00.825Z,101306.19
2022-08-03T04:47:04.901Z,101306.94
2022-08-03T04:50:12.905Z,101307.91
2022-08-03T04:53:19.599Z,101315.19
2022-08-03T04:56:23.778Z,101318.91
2022-08-03T04:59:28.033Z,101321.34
2022-08-03T05:02:32.729Z,101318.56
2022-08-03T05:05:49.744Z,101337.06
2022-08-03T05:08:55.146Z,101328.97
2022-08-03T05:12:00.402Z,101323.66
2022-08-03T05:15:05.377Z,101320.63
2022-08-03T05:18:13.919Z,101324.97
2022-08-03T05:21:18.869Z,101327.31
2022-08-03T05:24:23.355Z,101329.13
2022-08-03T05:27:27.795Z,101337.97
2022-08-03T05:30:34.307Z,101338.22
2022-08-03T05:33:38.637Z,101342.34
2022-08-03T05:36:42.846Z,101344.78
2022-08-03T05:39:47.153Z,101337.38
2022-08-03T05:42:51.578Z,101329.78
2022-08-03T05:46:11.663Z,101325.66
2022-08-03T05:49:17.380Z,101325.75
2022-08-03T05:52:22.069Z,101318.13
2022-08-03T05:55:26.617Z,101306.28
2022-08-03T05:58:30.979Z,101298.63
2022-08-03T06:01:38.123Z,101300.44
2022-08-03T06:04:42.492Z,101292.56
2022-08-03T06:07:47.094Z,101290.22
2022-08-03T06:10:51.466Z,101295.06
2022-08-03T06:13:55.787Z,101302.06
2022-08-03T06:16:59.974Z,101310.53
2022-08-03T06:20:04.991Z,101308.38
2022-08-03T06:23:15.917Z,101312.19
2022-08-03T06:26:24.061Z,101318.72
2022-08-03T06:29:28.202Z,101327.41
2022-08-03T06:32:33.709Z,101334.28
2022-08-03T06:35:37.819Z,101342.63
2022-08-03T06:38:45.653Z,101321.03
2022-08-03T06:41:49.984Z,101291.16
2022-08-03T06:44:54.311Z,101278.28
2022-08-03T06:48:11.774Z,101259.06
2022-08-03T06:51:16.214Z,101257.19
2022-08-03T06:54:22.252Z,101263.31
2022-08-03T06:57:26.282Z,101242.13
2022-08-03T07:00:31.024Z,101255.13
2022-08-03T07:03:35.120Z,101238.53
2022-08-03T07:06:39.968Z,101253.88
2022-08-03T07:09:56.804Z,101255.75
2022-08-03T07:13:01.701Z,101246.34
2022-08-03T07:16:05.944Z,101243.81
2022-08-03T07:19:10.506Z,101253.03
2022-08-03T07:22:14.966Z,101245.28
2022-08-03T07:25:19.888Z,101255.44
2022-08-03T07:28:24.318Z,101262.31
2022-08-03T07:31:28.730Z,101270.34
2022-08-03T07:34:38.602Z,101258.41
2022-08-03T07:37:43.093Z,101280.06
2022-08-03T07:40:58.658Z,101285.16
2022-08-03T07:44:03.169Z,101277.84
2022-08-03T07:47:07.729Z,101269.66
2022-08-03T07:50:13.437Z,101258.25
2022-08-03T07:53:17.817Z,101265.44
2022-08-03T07:56:22.787Z,101298.28
2022-08-03T07:59:26.730Z,101277.84
2022-08-03T08:02:30.831Z,101282.63
2022-08-03T08:05:35.138Z,101269.91
2022-08-03T08:08:40.546Z,101268.50
2022-08-03T08:11:44.714Z,101264.81
2022-08-03T08:14:49.079Z,101269.16
2022-08-03T08:17:59.452Z,101276.91
2022-08-03T08:21:03.516Z,101270.97
2022-08-03T08:24:18.026Z,101271.38
2022-08-03T08:27:22.801Z,101265.44
2022-08-03T08:30:26.864Z,101259.59
2022-08-03T08:34:02.457Z,101250.00
2022-08-03T08:36:59.577Z,101239.81
2022-08-03T08:40:05.492Z,101240.72
2022-08-03T08:43:09.892Z,101252.94
2022-08-03T08:46:23.419Z,101252.66
2022-08-03T08:49:29.398Z,101248.66
2022-08-03T08:52:35.315Z,101243.56
2022-08-03T08:55:58.669Z,101260.19
2022-08-03T08:59:04.367Z,101269.38
2022-08-03T09:02:09.380Z,101263.47
2022-08-03T09:05:16.079Z,101251.16
2022-08-03T09:08:21.784Z,101240.19
2022-08-03T09:11:57.633Z,101236.75
2022-08-03T09:15:14.646Z,101232.16
2022-08-03T09:18:30.493Z,101256.63
2022-08-03T09:21:37.214Z,101242.94
2022-08-03T09:25:21.639Z,101216.47
2022-08-03T09:29:00.086Z,101234.81
2022-08-03T09:31:46.207Z,101230.31
2022-08-03T09:34:56.534Z,101231.16
2022-08-03T09:38:18.048Z,101251.44
2022-08-03T09:41:22.207Z,101236.38
2022-08-03T09:44:36.989Z,101221.66
2022-08-03T09:47:45.027Z,101220.69
2022-08-03T09:50:58.430Z,101201.47
2022-08-03T09:54:05.595Z,101212.44
2022-08-03T09:57:22.127Z,101218.22
2022-08-03T10:00:26.321Z,101232.16
2022-08-03T10:04:02.738Z,101231.69
2022-08-03T10:07:09.902Z,101212.56
2022-08-03T10:10:30.227Z,101208.84
2022-08-03T10:13:36.480Z,101205.88
2022-08-03T10:16:41.046Z,101213.28
2022-08-03T10:19:45.375Z,101209.75
2022-08-03T10:22:49.681Z,101230.09
2022-08-03T10:25:58.453Z,101231.53
2022-08-03T10:29:14.463Z,101223.16
2022-08-03T10:32:30.243Z,101222.16
2022-08-03T10:35:37.490Z,101209.06
2022-08-03T10:38:52.482Z,101223.50
2022-08-03T10:41:59.858Z,101214.63
2022-08-03T10:45:12.867Z,101226.06
2022-08-03T10:48:18.639Z,101229.59
2022-08-03T10:51:23.725Z,101203.31
2022-08-03T10:54:58.236Z,101168.59
2022-08-03T10:58:05.756Z,101214.28
2022-08-03T11:01:12.515Z,101192.19
2022-08-03T11:04:18.874Z,101122.81
2022-08-03T11:07:24.622Z,101103.16
2022-08-03T11:10:32.232Z,101113.22
2022-08-03T11:13:36.772Z,101088.34
2022-08-03T11:16:45.205Z,101079.84
2022-08-03T11:19:57.477Z,101064.81
2022-08-03T11:23:02.964Z,101082.63
2022-08-03T11:26:11.082Z,101061.53
2022-08-03T11:29:28.085Z,101074.94
2022-08-03T11:32:38.534Z,101066.13
2022-08-03T11:36:00.007Z,101056.72
2022-08-03T11:39:17.298Z,101066.16
2022-08-03T11:42:24.672Z,101072.22
2022-08-03T11:45:28.841Z,101087.66
2022-08-03T11:48:38.573Z,101081.78
2022-08-03T11:51:42.443Z,101083.50
2022-08-03T11:54:50.785Z,101072.59
2022-08-03T11:59:16.384Z,101064.03
2022-08-03T12:01:25.915Z,101088.03
2022-08-03T12:04:30.143Z,101079.00
2022-08-03T12:08:03.826Z,101071.09
2022-08-03T12:11:00.684Z,101069.63
2022-08-03T12:14:48.980Z,101072.25
2022-08-03T12:17:41.295Z,101083.47
2022-08-03T12:20:45.666Z,101066.63
2022-08-03T12:23:50.948Z,101060.94
2022-08-03T12:26:59.142Z,101055.22
2022-08-03T12:30:05.060Z,101058.97
2022-08-03T12:33:25.829Z,101053.25
2022-08-03T12:36:32.263Z,101063.97
2022-08-03T12:39:36.534Z,101085.63
2022-08-03T12:43:01.140Z,101072.78
2022-08-03T12:46:14.741Z,101058.56
2022-08-03T12:49:19.622Z,101049.91
2022-08-03T12:52:23.971Z,101049.06
2022-08-03T12:55:57.311Z,101061.72
2022-08-03T12:58:58.580Z,101061.06
2022-08-03T13:02:09.330Z,101059.59
2022-08-03T13:05:15.548Z,101059.63
2022-08-03T13:08:24.435Z,101052.72
2022-08-03T13:11:52.589Z,101066.44
2022-08-03T13:14:56.465Z,101053.25
2022-08-03T13:18:01.088Z,101065.13
2022-08-03T13:21:05.501Z,101068.00
2022-08-03T13:24:09.798Z,101083.25
2022-08-03T13:28:12.344Z,101068.41
2022-08-03T13:30:38.690Z,101070.38
2022-08-03T13:33:43.077Z,101057.81
2022-08-03T13:37:07.912Z,101068.88
2022-08-03T13:40:11.896Z,101060.50
2022-08-03T13:43:20.621Z,101065.78
2022-08-03T13:46:26.913Z,101076.38
2022-08-03T13:49:31.427Z,101077.94
2022-08-03T13:52:36.575Z,101071.91
2022-08-03T13:55:41.075Z,101068.44
2022-08-03T13:58:45.350Z,101071.53
2022-08-03T14:01:55.225Z,101063.53
2022-08-03T14:05:00.348Z,101060.56
2022-08-03T14:08:06.887Z,101061.66
2022-08-03T14:11:11.956Z,101079.78
2022-08-03T14:14:16.448Z,101073.06
2022-08-03T14:17:23.317Z,101082.91
2022-08-03T14:20:37.849Z,101076.13
2022-08-03T14:23:43.163Z,101063.97
2022-08-03T14:26:49.501Z,101080.22
2022-08-03T14:29:53.915Z,101084.00
2022-08-03T14:33:00.838Z,101089.44
2022-08-03T14:36:05.416Z,101104.56
2022-08-03T14:39:09.461Z,101070.72
2022-08-03T14:42:14.105Z,101067.13
2022-08-03T14:45:20.295Z,101079.88
2022-08-03T14:50:34.053Z,101076.00
2022-08-03T14:51:53.774Z,101087.25
2022-08-03T14:54:59.273Z,101085.28
2022-08-03T14:58:05.784Z,101085.69
2022-08-03T15:02:04.607Z,101084.22
2022-08-03T15:04:48.588Z,101070.06
2022-08-03T15:07:52.939Z,101061.31
2022-08-03T15:10:57.138Z,101069.50
2022-08-03T15:14:04.031Z,101056.78
2022-08-03T15:17:10.238Z,101084.94
2022-08-03T15:20:26.531Z,101080.81
2022-08-03T15:23:36.791Z,101069.47
2022-08-03T15:26:41.794Z,101065.03
2022-08-03T15:30:08.919Z,101059.88
2022-08-03T15:33:10.939Z,101064.91
2022-08-03T15:36:14.917Z,101052.94
2022-08-03T15:39:19.391Z,101060.84
2022-08-03T15:42:23.984Z,101052.34
2022-08-03T15:45:29.591Z,101033.00
2022-08-03T15:48:41.378Z,101045.63
2022-08-03T15:51:45.584Z,101046.59
2022-08-03T15:54:49.785Z,101070.53
2022-08-03T15:59:12.706Z,101094.00
2022-08-03T16:01:20.339Z,101093.81
2022-08-03T16:04:24.728Z,101108.66
2022-08-03T16:08:03.855Z,101123.50
2022-08-03T16:11:09.450Z,101148.09
2022-08-03T16:14:34.311Z,101134.47
2022-08-03T16:17:38.896Z,101131.47
2022-08-03T16:20:44.755Z,101157.53
2022-08-03T16:23:49.789Z,101168.34
2022-08-03T16:26:56.644Z,101188.91
2022-08-03T16:30:01.105Z,101185.91
2022-08-03T16:33:05.584Z,101197.97
2022-08-03T16:36:09.919Z,101188.88
2022-08-03T16:39:14.243Z,101195.28
2022-08-03T16:42:18.449Z,101202.16
2022-08-03T16:45:23.465Z,101225.88
2022-08-03T16:48:28.473Z,101234.09
2022-08-03T16:51:49.971Z,101248.38
2022-08-03T16:54:54.965Z,101271.09
2022-08-03T16:58:02.140Z,101258.66
2022-08-03T17:01:20.724Z,101239.66
2022-08-03T17:04:27.476Z,101254.78
2022-08-03T17:07:33.448Z,101230.75
2022-08-03T17:10:37.998Z,101234.59
2022-08-03T17:13:44.651Z,101250.41
2022-08-03T17:16:54.134Z,101259.28
2022-08-03T17:20:00.301Z,101263.16
2022-08-03T17:23:37.154Z,101279.09
2022-08-03T17:26:44.637Z,101292.97
2022-08-03T17:29:53.782Z,101290.91
2022-08-03T17:32:58.509Z,101290.41
2022-08-03T17:36:03.036Z,101290.72
2022-08-03T17:39:08.771Z,101304.31
2022-08-03T17:42:29.309Z,101301.94
2022-08-03T17:45:42.216Z,101312.69
2022-08-03T17:48:57.463Z,101321.22
2022-08-03T17:52:06.635Z,101331.41
2022-08-03T17:55:55.940Z,101329.31
2022-08-03T17:59:12.228Z,101342.38
2022-08-03T18:03:06.932Z,101359.09
2022-08-03T18:06:14.257Z,101374.22
2022-08-03T18:10:06.350Z,101380.59
2022-08-03T18:13:14.056Z,101388.03
2022-08-03T18:16:22.746Z,101400.50
2022-08-03T18:20:02.080Z,101397.75
2022-08-03T18:22:53.185Z,101389.00
2022-08-03T18:25:59.222Z,101404.34
2022-08-03T18:29:04.058Z,101402.44
2022-08-03T18:32:13.565Z,101402.72
2022-08-03T18:35:24.657Z,101416.13
2022-08-03T18:38:32.365Z,101425.47
2022-08-03T18:41:36.526Z,101426.59
2022-08-03T18:44:53.578Z,101421.25
2022-08-03T18:48:10.481Z,101418.47
2022-08-03T18:51:28.692Z,101424.72
2022-08-03T18:55:02.602Z,101422.47
2022-08-03T18:58:17.984Z,101427.28
2022-08-03T19:02:01.102Z,101431.44
2022-08-03T19:04:58.948Z,101434.13
2022-08-03T19:08:07.858Z,101433.00
2022-08-03T19:12:25.970Z,101433.88
2022-08-03T19:15:12.650Z,101434.47
2022-08-03T19:18:18.539Z,101449.00
2022-08-03T19:21:22.696Z,101444.03
2022-08-03T19:24:27.934Z,101456.75
2022-08-03T19:27:32.895Z,101452.97
2022-08-03T19:30:40.132Z,101460.53
2022-08-03T19:33:57.540Z,101456.47
2022-08-03T19:37:03.504Z,101458.00
2022-08-03T19:40:10.803Z,101456.47
2022-08-03T19:43:22.415Z,101463.06
2022-08-03T19:46:31.057Z,101461.25
2022-08-03T19:50:04.951Z,101472.72
2022-08-03T19:53:11.785Z,101468.19
2022-08-03T19:56:18.162Z,101467.63
2022-08-03T19:59:23.738Z,101479.72
2022-08-03T20:02:32.329Z,101475.06
2022-08-03T20:05:45.167Z,101476.16
2022-08-03T20:08:57.632Z,101482.19
2022-08-03T20:12:03.376Z,101476.25
2022-08-03T20:15:09.204Z,101480.47
2022-08-03T20:18:16.642Z,101473.94
2022-08-03T20:21:24.556Z,101476.19
2022-08-03T20:24:34.228Z,101478.28
2022-08-03T20:28:07.253Z,101482.91
2022-08-03T20:31:10.730Z,101493.03
2022-08-03T20:34:17.548Z,101490.88
2022-08-03T20:37:22.160Z,101490.41
2022-08-03T20:40:27.370Z,101495.13
2022-08-03T20:43:32.333Z,101496.53
2022-08-03T20:46:53.427Z,101497.75
2022-08-03T20:50:01.885Z,101502.13
2022-08-03T20:53:07.551Z,101499.72
2022-08-03T20:56:17.054Z,101499.25
2022-08-03T20:59:21.487Z,101497.09
2022-08-03T21:02:29.483Z,101496.41
2022-08-03T21:05:48.260Z,101493.97
2022-08-03T21:09:04.161Z,101481.97
2022-08-03T21:12:18.200Z,101493.78
2022-08-03T21:16:11.593Z,101488.56
2022-08-03T21:18:53.053Z,101479.09
2022-08-03T21:21:58.957Z,101484.84
2022-08-03T21:25:10.897Z,101487.44
2022-08-03T21:28:16.660Z,101484.91
2022-08-03T21:31:32.453Z,101487.56
2022-08-03T21:34:37.075Z,101485.66
2022-08-03T21:37:43.336Z,101488.72
2022-08-03T21:40:49.875Z,101487.13
2022-08-03T21:43:54.028Z,101488.34
2022-08-03T21:46:58.852Z,101480.47
2022-08-03T21:50:09.526Z,101479.88
2022-08-03T21:53:14.931Z,101493.22
2022-08-03T21:56:21.196Z,101476.13
2022-08-03T21:59:26.754Z,101478.66
2022-08-03T22:02:32.358Z,101479.41
2022-08-03T22:05:43.447Z,101471.41
2022-08-03T22:08:49.657Z,101468.22
2022-08-03T22:11:54.771Z,101470.19
2022-08-03T22:15:02.098Z,101474.81
2022-08-03T22:18:06.993Z,101469.47
2022-08-03T22:21:14.626Z,101466.09
2022-08-03T22:24:24.020Z,101467.88
2022-08-03T22:27:32.130Z,101469.25
2022-08-03T22:30:37.468Z,101469.84
2022-08-03T22:33:43.965Z,101477.97
2022-08-03T22:36:48.493Z,101479.94
2022-08-03T22:39:53.455Z,101479.22
2022-08-03T22:42:57.947Z,101487.47
2022-08-03T22:46:08.999Z,101498.13
2022-08-03T22:49:16.627Z,101492.78
2022-08-03T22:52:21.352Z,101496.91
2022-08-03T22:55:26.062Z,101497.16
2022-08-03T22:58:30.222Z,101501.53
2022-08-03T23:01:39.221Z,101504.19
2022-08-03T23:04:44.892Z,101501.53
2022-08-03T23:07:50.852Z,101499.94
2022-08-03T23:11:00.805Z,101499.34
2022-08-03T23:14:10.465Z,101490.63
2022-08-03T23:17:15.592Z,101488.91
2022-08-03T23:20:20.901Z,101486.25
2022-08-03T23:23:31.203Z,101485.66
2022-08-03T23:26:50.639Z,101484.81
2022-08-03T23:29:57.027Z,101479.72
2022-08-03T23:33:02.932Z,101476.22
2022-08-03T23:36:29.422Z,101471.25
2022-08-03T23:39:34.876Z,101470.25
2022-08-03T23:42:41.269Z,101467.34
2022-08-03T23:45:45.915Z,101472.69
2022-08-03T23:48:51.174Z,101474.13
2022-08-03T23:52:19.062Z,101474.38
2022-08-03T23:55:36.446Z,101466.38
2022-08-03T23:59:00.341Z,101464.81
